Time;durP1;ratioP1;P1;durP2;ratioP2;P2;SDS_P1;SDS_P2;PMS_P1;PMS_P2;Temp;Humidity;BMP_temperature;BMP_pressure;BME280_temperature;BME280_humidity;BME280_pressure;Samples;Min_cycle;Max_cycle;Signal;HPM_P1;HPM_P2
2022/06/15 00:00:37;;;;;;;13.40;8.02;;;;;;;20.54;67.72;92953.66;4769676;30;20760;-77
2022/06/15 00:03:03;;;;;;;12.70;7.05;;;;;;;20.43;69.03;92953.34;4786225;30;20049;-77
2022/06/15 00:05:29;;;;;;;12.63;7.47;;;;;;;20.35;69.99;92955.03;4770038;30;20047;-77
2022/06/15 00:07:54;;;;;;;13.38;7.10;;;;;;;20.26;70.21;92953.59;4799446;29;20043;-77
2022/06/15 00:10:21;;;;;;;12.63;6.93;;;;;;;20.17;71.10;92954.50;4802905;29;20043;-76
2022/06/15 00:12:47;;;;;;;12.77;7.32;;;;;;;20.11;70.60;92950.53;4803979;29;20026;-76
2022/06/15 00:15:13;;;;;;;13.13;8.13;;;;;;;20.08;70.87;92951.16;4803863;29;20053;-76
2022/06/15 00:17:39;;;;;;;14.85;7.45;;;;;;;20.04;70.79;92952.16;4793266;29;20058;-76
2022/06/15 00:20:05;;;;;;;16.08;7.50;;;;;;;20.03;71.04;92953.28;4785128;30;20446;-76
2022/06/15 00:22:31;;;;;;;12.88;9.00;;;;;;;20.00;71.19;92957.41;4785924;30;20038;-76
2022/06/15 00:24:56;;;;;;;17.88;7.75;;;;;;;19.98;71.42;92951.63;4769931;30;20130;-76
2022/06/15 00:27:22;;;;;;;13.57;7.78;;;;;;;19.96;71.44;92948.53;4789098;29;20089;-76
2022/06/15 00:29:48;;;;;;;15.18;7.78;;;;;;;19.93;71.18;92957.19;4802802;29;20035;-76
2022/06/15 00:32:14;;;;;;;13.18;7.53;;;;;;;19.91;71.06;92948.75;4787948;29;20107;-76
2022/06/15 00:34:39;;;;;;;11.48;7.28;;;;;;;19.89;71.66;92950.97;4802686;29;20058;-76
2022/06/15 00:37:06;;;;;;;11.27;6.53;;;;;;;19.87;71.73;92948.66;4803874;29;20134;-77
2022/06/15 00:39:35;;;;;;;12.38;7.35;;;;;;;19.85;71.94;92944.78;4788282;29;20043;-76
2022/06/15 00:42:02;;;;;;;13.93;8.43;;;;;;;19.83;71.99;92942.44;4769950;30;20498;-77
2022/06/15 00:44:33;;;;;;;13.95;7.80;;;;;;;19.80;71.98;92947.66;4785765;30;20066;-77
2022/06/15 00:47:31;;;;;;;12.65;7.95;;;;;;;19.74;72.61;92941.78;4769626;30;20043;-77
2022/06/15 00:50:01;;;;;;;14.05;7.50;;;;;;;19.71;72.04;92943.22;4786785;29;20055;-76
2022/06/15 00:52:49;;;;;;;16.10;8.27;;;;;;;19.68;72.57;92943.06;4786040;30;20071;-77
2022/06/15 00:55:25;;;;;;;17.50;8.05;;;;;;;19.59;73.01;92943.19;4769478;30;20066;-76
2022/06/15 00:57:51;;;;;;;13.52;8.05;;;;;;;19.54;73.46;92944.19;4769560;30;20070;-77
2022/06/15 01:00:19;;;;;;;14.00;8.38;;;;;;;19.49;73.61;92955.00;4798802;29;20165;-76
2022/06/15 01:02:44;;;;;;;12.43;7.85;;;;;;;19.45;73.38;92948.78;4807221;29;20085;-77
2022/06/15 01:05:19;;;;;;;12.30;7.57;;;;;;;19.40;73.71;92950.91;4806727;29;20035;-76
2022/06/15 01:07:55;;;;;;;10.65;7.72;;;;;;;19.38;73.61;92947.81;4806831;29;20051;-76
2022/06/15 01:10:34;;;;;;;13.20;7.93;;;;;;;19.33;74.13;92952.22;4790551;29;20050;-77
2022/06/15 01:13:17;;;;;;;16.48;7.90;;;;;;;19.29;74.12;92946.00;4805674;29;20115;-77
2022/06/15 01:15:46;;;;;;;14.93;8.68;;;;;;;19.28;73.93;92936.50;4790373;29;20118;-76
2022/06/15 01:18:27;;;;;;;24.70;8.10;;;;;;;19.28;74.36;92936.50;4766864;30;20039;-76
2022/06/15 01:21:01;;;;;;;12.90;7.35;;;;;;;19.27;74.60;92934.97;4788644;30;20046;-76
2022/06/15 01:23:48;;;;;;;11.30;7.85;;;;;;;19.24;74.85;92929.53;4788389;30;20172;-76
2022/06/15 01:26:42;;;;;;;12.40;7.32;;;;;;;19.23;75.11;92936.72;4788874;30;20051;-77
2022/06/15 01:29:13;;;;;;;13.88;7.50;;;;;;;19.23;75.05;92942.03;4772328;30;20123;-77
2022/06/15 01:31:56;;;;;;;15.43;7.80;;;;;;;19.21;75.58;92941.59;4798778;29;20096;-76
2022/06/15 01:34:40;;;;;;;10.98;7.70;;;;;;;19.24;75.15;92935.59;4789850;29;20717;-76
2022/06/15 01:37:15;;;;;;;12.73;8.00;;;;;;;19.24;75.39;92932.19;4790063;29;20050;-76
2022/06/15 01:39:58;;;;;;;13.43;7.57;;;;;;;19.23;75.60;92941.22;4806194;29;20038;-76
2022/06/15 01:42:30;;;;;;;18.33;7.60;;;;;;;19.22;76.07;92945.00;4789951;29;20039;-76
2022/06/15 01:45:04;;;;;;;14.93;8.27;;;;;;;19.23;75.67;92939.38;4806173;29;20037;-76
2022/06/15 01:47:33;;;;;;;17.02;7.93;;;;;;;19.24;75.86;92935.59;4789989;29;20055;-76
2022/06/15 01:50:08;;;;;;;16.20;7.72;;;;;;;19.25;76.31;92936.38;4790385;29;20088;-76
2022/06/15 01:52:45;;;;;;;16.10;7.55;;;;;;;19.23;76.47;92939.38;4797736;29;20035;-76
2022/06/15 01:55:26;;;;;;;12.98;7.43;;;;;;;19.22;76.30;92939.69;4804584;29;20124;-77
2022/06/15 01:57:56;;;;;;;13.18;8.07;;;;;;;19.21;76.21;92932.84;4789840;29;20039;-76
2022/06/15 02:00:23;;;;;;;12.63;7.68;;;;;;;19.21;76.15;92940.81;4794503;29;20043;-77
2022/06/15 02:03:11;;;;;;;13.88;7.57;;;;;;;19.20;75.84;92941.91;4804756;29;20039;-75
2022/06/15 02:06:02;;;;;;;12.55;7.75;;;;;;;19.19;75.87;92943.78;4804649;29;20564;-76
2022/06/15 02:08:41;;;;;;;16.45;8.00;;;;;;;19.19;76.07;92933.19;4804658;29;20506;-76
2022/06/15 02:11:14;;;;;;;17.05;8.10;;;;;;;19.17;75.37;92943.34;4818961;29;20125;-76
2022/06/15 02:13:58;;;;;;;19.20;8.30;;;;;;;19.16;75.31;92951.63;4804302;29;20046;-76
2022/06/15 02:16:31;;;;;;;14.07;8.27;;;;;;;19.11;75.55;92949.94;4819818;29;20038;-76
2022/06/15 02:18:58;;;;;;;19.05;9.15;;;;;;;19.08;75.33;92946.06;4805525;29;20042;-77
2022/06/15 02:21:26;;;;;;;21.85;8.40;;;;;;;19.07;75.46;92949.03;4819188;29;20653;-76
2022/06/15 02:23:56;;;;;;;17.67;9.60;;;;;;;19.04;75.79;92955.03;4810276;29;20134;-77
2022/06/15 02:26:26;;;;;;;17.15;8.55;;;;;;;19.02;75.98;92955.34;4786291;30;20042;-76
2022/06/15 02:28:56;;;;;;;12.55;8.18;;;;;;;19.00;76.01;92956.78;4785975;29;20031;-76
2022/06/15 02:31:28;;;;;;;10.35;7.68;;;;;;;18.97;76.32;92955.53;4786044;29;20134;-77
2022/06/15 02:33:57;;;;;;;15.70;7.82;;;;;;;18.95;76.14;92951.66;4792077;29;20051;-76
2022/06/15 02:36:25;;;;;;;14.05;7.90;;;;;;;18.93;76.29;92949.34;4817375;29;20031;-76
2022/06/15 02:38:51;;;;;;;14.18;7.13;;;;;;;18.92;76.70;92948.56;4803873;29;20102;-76
2022/06/15 02:41:20;;;;;;;11.90;7.35;;;;;;;18.90;76.72;92945.47;4804106;29;20049;-76
2022/06/15 02:43:52;;;;;;;16.02;7.68;;;;;;;18.88;76.87;92954.84;4817287;29;20413;-76
2022/06/15 02:46:19;;;;;;;15.50;7.68;;;;;;;18.88;77.66;92952.19;4785849;29;20046;-76
2022/06/15 02:48:46;;;;;;;16.08;8.13;;;;;;;18.85;76.89;92953.63;4800348;29;20100;-76
2022/06/15 02:51:44;;;;;;;13.40;8.02;;;;;;;18.81;77.10;92951.97;4782115;29;20142;-76
2022/06/15 02:54:30;;;;;;;14.48;7.40;;;;;;;18.74;77.54;92952.44;4819023;29;20054;-76
2022/06/15 02:57:04;;;;;;;13.18;7.90;;;;;;;18.72;77.13;92959.94;4803472;29;20043;-77
2022/06/15 02:59:31;;;;;;;13.35;8.38;;;;;;;18.70;77.03;92960.28;4818722;29;20039;-76
2022/06/15 03:01:57;;;;;;;17.75;10.90;;;;;;;18.73;77.18;92961.50;4788464;29;20043;-76
2022/06/15 03:04:24;;;;;;;18.75;11.43;;;;;;;18.74;77.07;92952.44;4788646;29;20054;-76
2022/06/15 03:06:50;;;;;;;15.90;11.40;;;;;;;18.75;77.40;92964.59;4785663;29;20043;-77
2022/06/15 03:09:17;;;;;;;22.15;12.23;;;;;;;18.76;77.20;92958.22;4803130;29;20049;-76
2022/06/15 03:11:46;;;;;;;20.95;12.90;;;;;;;18.76;77.25;92960.84;4788262;29;20458;-76
2022/06/15 03:14:22;;;;;;;22.02;12.32;;;;;;;18.77;77.38;92965.09;4803190;29;20490;-76
2022/06/15 03:16:50;;;;;;;21.77;11.73;;;;;;;18.74;77.47;92957.75;4788495;29;20047;-76
2022/06/15 03:19:19;;;;;;;17.80;9.75;;;;;;;18.70;77.47;92959.50;4788305;29;20047;-76
2022/06/15 03:21:48;;;;;;;16.17;10.05;;;;;;;18.62;77.96;92957.69;4773920;29;20058;-76
2022/06/15 03:24:14;;;;;;;13.00;9.68;;;;;;;18.60;77.94;92962.53;4772887;29;20127;-76
2022/06/15 03:26:40;;;;;;;17.55;9.82;;;;;;;18.55;78.32;92960.09;4803475;29;20043;-76
2022/06/15 03:29:07;;;;;;;18.48;10.25;;;;;;;18.50;78.15;92956.53;4804720;29;20034;-76
2022/06/15 03:31:35;;;;;;;20.52;10.48;;;;;;;18.46;78.55;92958.28;4786947;29;20035;-76
2022/06/15 03:34:01;;;;;;;15.50;10.40;;;;;;;18.43;78.89;92953.63;4770399;30;20069;-76
2022/06/15 03:36:26;;;;;;;15.68;10.10;;;;;;;18.40;78.43;92951.63;4785604;29;20035;-76
2022/06/15 03:38:53;;;;;;;15.82;10.65;;;;;;;18.40;78.75;92959.56;4787840;29;20043;-77
2022/06/15 03:41:24;;;;;;;26.63;12.57;;;;;;;18.39;78.67;92968.59;4770507;30;20070;-77
2022/06/15 03:43:52;;;;;;;20.42;11.38;;;;;;;18.37;79.34;92962.09;4770206;30;20420;-77
2022/06/15 03:46:23;;;;;;;23.98;12.05;;;;;;;18.35;79.47;92961.63;4770328;30;20043;-76
2022/06/15 03:48:50;;;;;;;15.95;11.40;;;;;;;18.35;79.57;92967.72;4770373;30;20134;-77
2022/06/15 03:51:16;;;;;;;19.60;11.77;;;;;;;18.30;79.43;92965.25;4784896;30;20061;-76
2022/06/15 03:53:54;;;;;;;18.52;11.02;;;;;;;18.28;79.77;92972.75;4769984;30;20502;-76
2022/06/15 03:56:20;;;;;;;18.60;11.60;;;;;;;18.27;79.96;92973.84;4785218;30;20053;-76
2022/06/15 03:58:46;;;;;;;19.13;11.07;;;;;;;18.24;80.42;92966.56;4784825;30;20043;-77
2022/06/15 04:01:16;;;;;;;22.02;10.68;;;;;;;18.22;80.71;92969.50;4784748;30;20047;-76
2022/06/15 04:03:42;;;;;;;16.52;10.77;;;;;;;18.22;80.85;92977.47;4770505;30;20085;-76
2022/06/15 04:06:13;;;;;;;18.33;10.68;;;;;;;18.21;81.27;92969.81;4769767;29;20049;-76
2022/06/15 04:08:48;;;;;;;15.68;10.80;;;;;;;18.23;81.22;92975.59;4803125;29;20506;-76
2022/06/15 04:14:22;;;;;;;16.92;10.50;;;;;;;18.23;82.41;92971.06;4780916;29;20137;-76
2022/06/15 04:17:03;;;;;;;24.55;10.95;;;;;;;18.25;82.55;92965.44;4769763;30;20044;-77
2022/06/15 04:22:38;;;;;;;20.02;12.55;;;;;;;18.29;81.83;92976.97;4769912;30;20162;-77
2022/06/15 04:25:04;;;;;;;20.17;12.25;;;;;;;18.33;81.78;92972.56;4769943;30;20142;-76
2022/06/15 04:27:32;;;;;;;20.90;11.68;;;;;;;18.36;81.51;92981.75;4769880;30;20143;-77
2022/06/15 04:29:59;;;;;;;24.58;11.02;;;;;;;18.39;81.97;92981.88;4759158;29;20053;-77
2022/06/15 04:32:25;;;;;;;17.75;10.43;;;;;;;18.40;82.04;92978.13;4787624;29;20731;-77
2022/06/15 04:34:53;;;;;;;18.75;10.68;;;;;;;18.46;82.27;92979.50;4788988;29;20034;-76
2022/06/15 04:37:19;;;;;;;20.27;12.23;;;;;;;18.50;81.82;92974.31;4776253;29;20042;-76
2022/06/15 04:39:48;;;;;;;16.45;10.73;;;;;;;18.55;81.52;92978.63;4791130;29;20553;-76
2022/06/15 04:42:14;;;;;;;18.65;11.60;;;;;;;18.59;81.33;92979.56;4791348;29;20042;-76
2022/06/15 04:44:39;;;;;;;17.50;11.30;;;;;;;18.61;81.97;92978.13;4793978;29;20129;-76
2022/06/15 04:47:06;;;;;;;14.88;11.05;;;;;;;18.64;81.19;92974.84;4773494;30;20139;-77
2022/06/15 04:49:31;;;;;;;19.77;11.57;;;;;;;18.69;81.27;92976.53;4788685;30;20662;-77
2022/06/15 04:51:58;;;;;;;18.13;12.05;;;;;;;18.72;81.09;92986.47;4773762;30;20074;-76
2022/06/15 04:54:25;;;;;;;17.73;11.35;;;;;;;18.77;81.88;92988.94;4759762;30;20071;-77
2022/06/15 04:56:55;;;;;;;18.98;11.23;;;;;;;18.80;81.39;92985.66;4760734;30;20039;-78
2022/06/15 04:59:21;;;;;;;19.75;10.43;;;;;;;18.80;81.39;92988.31;4759136;29;20043;-76
2022/06/15 05:01:49;;;;;;;15.55;10.77;;;;;;;18.82;81.43;92988.75;4791956;29;20051;-77
2022/06/15 05:04:18;;;;;;;26.20;12.18;;;;;;;18.84;81.77;92994.50;4777231;29;20088;-76
2022/06/15 05:06:43;;;;;;;21.92;11.45;;;;;;;18.90;81.67;93000.41;4786560;29;20042;-75
2022/06/15 05:09:13;;;;;;;14.65;10.63;;;;;;;18.91;82.01;93000.09;4793453;29;20037;-76
2022/06/15 05:11:40;;;;;;;15.27;10.52;;;;;;;18.95;81.76;92989.56;4808871;29;20387;-77
2022/06/15 05:14:06;;;;;;;20.50;12.10;;;;;;;19.00;81.05;92994.69;4824080;29;20034;-77
2022/06/15 05:16:38;;;;;;;20.17;12.47;;;;;;;19.07;80.17;92999.47;4823309;29;20046;-77
2022/06/15 05:19:09;;;;;;;25.02;12.10;;;;;;;19.18;79.49;92999.84;4823798;29;20129;-77
2022/06/15 05:21:43;;;;;;;17.92;11.45;;;;;;;19.28;79.80;93002.09;4823614;29;20129;-77
2022/06/15 05:24:13;;;;;;;21.02;11.18;;;;;;;19.38;79.54;92995.59;4810072;29;20058;-77
2022/06/15 05:27:00;;;;;;;25.60;11.38;;;;;;;19.47;79.03;92997.03;4812908;29;20050;-76
2022/06/15 05:29:26;;;;;;;24.63;11.00;;;;;;;19.58;78.65;92993.97;4810138;29;20065;-76
2022/06/15 05:31:56;;;;;;;18.45;11.20;;;;;;;19.69;78.10;92995.88;4809331;29;20122;-77
2022/06/15 05:34:23;;;;;;;22.52;12.68;;;;;;;19.80;77.11;92996.25;4824478;29;20470;-77
2022/06/15 05:36:49;;;;;;;20.23;11.38;;;;;;;20.09;76.47;92983.84;4824689;29;20131;-77
2022/06/15 05:39:16;;;;;;;22.17;11.68;;;;;;;20.30;75.26;92991.69;4794634;29;20046;-77
2022/06/15 05:41:43;;;;;;;21.55;11.68;;;;;;;20.20;74.34;92989.47;4794536;29;20030;-77
2022/06/15 05:44:27;;;;;;;19.00;11.45;;;;;;;20.14;74.82;92992.38;4808779;29;20034;-77
2022/06/15 05:46:59;;;;;;;22.50;12.18;;;;;;;20.14;75.50;92983.63;4823800;29;20103;-76
2022/06/15 05:49:47;;;;;;;20.80;12.00;;;;;;;20.13;75.69;92990.06;4806145;29;20066;-77
2022/06/15 05:52:16;;;;;;;17.38;11.38;;;;;;;20.25;75.90;92997.25;4794137;29;20062;-77
2022/06/15 05:54:45;;;;;;;23.80;10.80;;;;;;;20.48;75.59;93003.63;4824266;29;20099;-77
2022/06/15 05:57:16;;;;;;;16.73;11.32;;;;;;;20.47;75.43;93011.97;4808743;29;20042;-76
2022/06/15 05:59:42;;;;;;;27.38;11.00;;;;;;;20.53;75.21;93011.38;4808454;29;20382;-77
2022/06/15 06:02:12;;;;;;;19.08;12.07;;;;;;;20.66;74.81;93004.19;4806357;29;20531;-77
2022/06/15 06:04:38;;;;;;;23.00;11.93;;;;;;;20.98;74.51;93010.44;4806925;29;20039;-77
2022/06/15 06:07:05;;;;;;;18.35;11.98;;;;;;;21.63;72.13;93002.25;4807164;29;20122;-77
2022/06/15 06:09:31;;;;;;;28.05;11.45;;;;;;;22.24;69.58;93006.41;4793268;29;20509;-79
2022/06/15 06:11:57;;;;;;;21.48;11.48;;;;;;;22.79;67.17;93011.03;4792590;29;20051;-77
2022/06/15 06:14:22;;;;;;;21.42;11.15;;;;;;;23.35;65.39;92999.16;4793056;29;20113;-79
2022/06/15 06:16:48;;;;;;;27.50;10.75;;;;;;;23.89;61.93;92999.03;4808940;29;20054;-77
2022/06/15 06:19:13;;;;;;;20.33;12.32;;;;;;;24.08;64.34;93000.84;4789564;29;20053;-76
2022/06/15 06:21:39;;;;;;;20.05;11.98;;;;;;;24.32;60.60;92996.25;4805213;29;20035;-76
2022/06/15 06:24:05;;;;;;;21.50;13.52;;;;;;;24.30;60.11;93001.94;4805271;29;20092;-76
2022/06/15 06:26:31;;;;;;;20.52;14.23;;;;;;;23.98;60.68;93003.34;4805265;29;20077;-76
2022/06/15 06:28:58;;;;;;;20.10;13.80;;;;;;;23.55;64.04;93013.28;4805557;29;20037;-76
2022/06/15 06:31:25;;;;;;;27.95;14.60;;;;;;;23.40;63.87;93021.03;4805874;29;20034;-76
2022/06/15 06:33:51;;;;;;;28.80;14.70;;;;;;;22.94;66.10;93028.88;4804954;29;20059;-76
2022/06/15 06:36:23;;;;;;;20.92;14.07;;;;;;;22.96;67.68;93023.94;4774011;29;20050;-75
2022/06/15 06:38:49;;;;;;;21.55;14.05;;;;;;;22.99;66.75;93017.13;4808571;29;20069;-76
2022/06/15 06:41:21;;;;;;;32.20;16.90;;;;;;;22.90;66.10;93022.69;4788915;29;20490;-75
2022/06/15 06:43:46;;;;;;;23.33;14.45;;;;;;;22.75;67.21;93026.19;4788534;29;20077;-75
2022/06/15 06:46:12;;;;;;;20.48;13.05;;;;;;;22.92;67.38;93023.13;4805002;29;20078;-76
2022/06/15 06:48:37;;;;;;;19.55;13.63;;;;;;;23.11;66.87;93017.03;4789612;29;20043;-78
2022/06/15 06:51:04;;;;;;;20.33;13.82;;;;;;;23.17;65.07;93010.31;4805223;29;20091;-76
2022/06/15 06:53:29;;;;;;;22.63;15.30;;;;;;;22.94;66.46;93007.50;4805423;29;20035;-76
2022/06/15 06:56:06;;;;;;;21.73;14.38;;;;;;;22.92;68.04;93015.13;4808183;29;20058;-80
2022/06/15 06:58:32;;;;;;;27.20;16.27;;;;;;;22.90;65.97;93021.91;4797148;29;20122;-79
2022/06/15 07:00:58;;;;;;;29.55;15.73;;;;;;;22.86;66.42;93024.53;4787077;29;20055;-78
2022/06/15 07:03:24;;;;;;;23.77;14.48;;;;;;;22.87;66.59;93015.38;4779826;30;20108;-77
2022/06/15 07:05:49;;;;;;;29.35;14.95;;;;;;;22.86;65.51;93025.28;4765160;30;20051;-78
2022/06/15 07:08:15;;;;;;;20.67;14.13;;;;;;;23.07;64.96;93032.97;4795715;30;20035;-78
2022/06/15 07:10:41;;;;;;;21.50;14.23;;;;;;;23.01;63.97;93044.28;4797220;30;20073;-78
2022/06/15 07:13:08;;;;;;;24.95;15.05;;;;;;;23.11;65.89;93056.31;4781353;30;20035;-78
2022/06/15 07:15:34;;;;;;;20.70;11.23;;;;;;;23.00;62.33;93042.75;4766351;30;20040;-78
2022/06/15 07:18:01;;;;;;;20.88;9.27;;;;;;;22.99;57.79;93043.84;4780575;30;20039;-78
2022/06/15 07:20:28;;;;;;;15.88;8.73;;;;;;;23.03;59.55;93042.84;4780770;30;20039;-78
2022/06/15 07:22:54;;;;;;;16.48;8.55;;;;;;;23.33;59.65;93049.50;4781139;30;20066;-78
2022/06/15 07:25:20;;;;;;;18.95;9.38;;;;;;;23.31;58.92;93047.19;4796673;30;20035;-78
2022/06/15 07:27:46;;;;;;;21.55;9.65;;;;;;;23.24;58.62;93047.06;4796304;30;20122;-78
2022/06/15 07:30:16;;;;;;;18.52;9.57;;;;;;;23.02;60.21;93041.28;4780143;30;20050;-78
2022/06/15 07:32:43;;;;;;;21.17;10.05;;;;;;;23.17;61.29;93034.34;4780564;30;20480;-78
2022/06/15 07:35:15;;;;;;;20.40;12.93;;;;;;;23.16;63.14;93050.69;4780317;30;20035;-78
2022/06/15 07:37:40;;;;;;;25.40;14.48;;;;;;;22.99;65.38;93039.31;4792927;30;20035;-78
2022/06/15 07:40:07;;;;;;;22.10;14.95;;;;;;;22.51;67.39;93030.63;4794929;30;20039;-79
2022/06/15 07:42:32;;;;;;;28.83;17.33;;;;;;;22.36;68.11;93032.22;4793493;30;20487;-78
2022/06/15 07:44:58;;;;;;;29.20;16.48;;;;;;;22.57;68.78;93034.56;4778302;30;20058;-78
2022/06/15 07:50:07;;;;;;;21.95;14.77;;;;;;;22.72;66.76;93029.53;4793336;30;20054;-78
2022/06/15 07:52:38;;;;;;;27.88;16.70;;;;;;;22.78;66.60;93033.50;4777066;30;20031;-78
2022/06/15 07:55:06;;;;;;;22.45;11.75;;;;;;;22.99;63.74;93025.97;4792173;30;20413;-78
2022/06/15 07:57:32;;;;;;;20.08;10.98;;;;;;;23.18;63.24;93022.53;4793811;30;20043;-78
2022/06/15 07:59:58;;;;;;;19.98;9.02;;;;;;;23.31;61.90;93012.47;4795690;29;20074;-78
2022/06/15 08:02:23;;;;;;;15.68;7.45;;;;;;;23.41;58.89;93013.78;4811641;29;20474;-78
2022/06/15 08:04:49;;;;;;;12.75;7.70;;;;;;;23.55;57.73;93015.94;4795348;29;20038;-78
2022/06/15 08:07:16;;;;;;;22.50;10.82;;;;;;;23.88;59.72;93031.44;4812367;29;20034;-78
2022/06/15 08:09:43;;;;;;;22.67;12.82;;;;;;;23.88;59.30;93026.88;4814395;29;20050;-78
2022/06/15 08:12:15;;;;;;;21.45;12.75;;;;;;;23.89;61.63;93022.31;4816766;29;20051;-77
2022/06/15 08:14:41;;;;;;;;;;;;;;;23.99;61.02;93012.91;4814790;29;20039;-78
2022/06/15 08:17:10;;;;;;;16.95;8.32;;;;;;;24.10;59.78;93009.28;4814444;29;19936;-78
2022/06/15 08:19:43;;;;;;;20.02;9.85;;;;;;;24.44;60.11;93003.28;4814598;29;20046;-78
2022/06/15 08:22:10;;;;;;;20.15;12.35;;;;;;;24.60;60.19;93006.59;4817189;29;20039;-78
2022/06/15 08:24:38;;;;;;;15.00;8.85;;;;;;;24.66;58.85;92997.13;4816928;29;20047;-78
2022/06/15 08:27:04;;;;;;;14.90;10.23;;;;;;;24.80;58.08;93001.13;4815050;29;20050;-78
2022/06/15 08:29:32;;;;;;;20.60;11.60;;;;;;;24.54;61.84;93002.69;4815962;29;20038;-77
2022/06/15 08:31:58;;;;;;;16.77;8.57;;;;;;;24.62;55.88;92993.63;4813429;29;20060;-78
2022/06/15 08:34:28;;;;;;;14.32;9.50;;;;;;;24.85;58.65;92996.22;4784088;29;20047;-78
2022/06/15 08:36:56;;;;;;;22.80;10.27;;;;;;;24.44;58.81;93004.06;4814913;29;20031;-78
2022/06/15 08:39:22;;;;;;;14.45;8.93;;;;;;;24.84;59.22;93001.97;4799022;29;20060;-78
2022/06/15 08:41:56;;;;;;;18.60;9.32;;;;;;;25.03;55.94;93003.72;4799554;29;20039;-78
2022/06/15 08:44:37;;;;;;;16.63;9.20;;;;;;;25.03;53.85;92999.13;4815993;29;20038;-78
2022/06/15 08:47:28;;;;;;;20.73;10.55;;;;;;;25.01;53.97;92998.72;4814231;29;20086;-79
2022/06/15 08:50:15;;;;;;;15.60;8.77;;;;;;;25.04;55.74;92998.00;4814726;29;20046;-78
2022/06/15 08:52:51;;;;;;;18.80;8.90;;;;;;;24.81;56.17;93000.00;4814210;29;20038;-78
2022/06/15 08:55:43;;;;;;;16.35;8.55;;;;;;;24.71;57.63;92991.47;4814667;29;20062;-78
2022/06/15 08:58:16;;;;;;;16.80;9.88;;;;;;;24.90;55.75;92997.81;4815093;29;20473;-78
2022/06/15 09:00:45;;;;;;;15.07;9.38;;;;;;;24.60;56.79;92998.56;4810847;29;20141;-78
2022/06/15 09:03:36;;;;;;;19.98;9.93;;;;;;;24.79;56.57;92991.56;4797085;29;20046;-78
2022/06/15 09:06:39;;;;;;;16.80;9.70;;;;;;;24.83;56.32;92984.34;4796913;29;20097;-78
2022/06/15 09:09:23;;;;;;;17.08;8.60;;;;;;;24.91;58.21;92989.44;4792591;29;20051;-78
2022/06/15 09:12:49;;;;;;;15.50;8.98;;;;;;;24.99;57.50;92984.16;4795342;30;20098;-78
2022/06/15 09:15:10;;;;;;;17.92;9.70;;;;;;;25.08;55.06;92990.78;4795928;29;20062;-78
2022/06/15 09:17:37;;;;;;;14.35;8.70;;;;;;;25.23;54.91;92993.66;4785668;29;20055;-78
2022/06/15 09:20:26;;;;;;;14.23;8.40;;;;;;;25.37;55.64;92999.16;4795049;29;20047;-78
2022/06/15 09:23:06;;;;;;;21.40;8.65;;;;;;;25.41;55.02;92996.53;4796926;29;20104;-78
2022/06/15 09:25:44;;;;;;;21.30;9.25;;;;;;;25.26;55.01;92995.59;4795723;29;20039;-78
2022/06/15 09:28:26;;;;;;;15.63;8.45;;;;;;;25.47;54.41;92998.50;4810364;29;20042;-78
2022/06/15 09:30:55;;;;;;;15.85;8.70;;;;;;;25.60;54.16;92995.56;4796152;29;20078;-78
2022/06/15 09:33:28;;;;;;;16.58;9.65;;;;;;;25.50;54.39;92997.00;4795091;30;20084;-78
2022/06/15 09:36:02;;;;;;;16.02;8.15;;;;;;;25.44;54.07;92993.09;4794749;29;20035;-78
2022/06/15 09:38:30;;;;;;;12.43;7.75;;;;;;;25.66;54.70;92996.78;4795207;30;20047;-78
2022/06/15 09:41:02;;;;;;;20.55;9.20;;;;;;;25.70;52.03;93000.28;4794688;30;20039;-78
2022/06/15 09:44:03;;;;;;;18.13;8.23;;;;;;;25.43;51.74;93002.31;4795591;29;20099;-78
2022/06/15 09:46:46;;;;;;;15.63;8.35;;;;;;;25.58;52.86;93005.88;4786114;30;20076;-78
2022/06/15 09:49:21;;;;;;;13.98;7.72;;;;;;;25.79;51.55;93014.16;4794793;29;20557;-78
2022/06/15 09:52:09;;;;;;;17.15;8.35;;;;;;;25.25;51.82;93016.25;4793479;29;20126;-77
2022/06/15 09:55:07;;;;;;;16.83;7.95;;;;;;;25.18;54.24;93015.38;4794061;29;20089;-78
2022/06/15 09:57:35;;;;;;;13.05;8.18;;;;;;;25.07;53.14;93020.59;4793869;29;20103;-78
2022/06/15 10:00:04;;;;;;;27.92;8.40;;;;;;;25.18;55.37;93012.72;4792536;30;20051;-78
2022/06/15 10:02:39;;;;;;;15.10;7.93;;;;;;;25.48;55.21;93013.44;4794720;29;20051;-78
2022/06/15 10:05:11;;;;;;;15.27;9.07;;;;;;;25.49;54.00;93008.88;4780722;30;20069;-78
2022/06/15 10:07:43;;;;;;;15.63;8.07;;;;;;;25.70;54.95;93008.31;4795959;29;20047;-78
2022/06/15 10:10:21;;;;;;;16.48;9.68;;;;;;;25.26;53.72;93012.44;4792899;29;20039;-77
2022/06/15 10:12:56;;;;;;;16.48;9.15;;;;;;;25.20;54.67;93005.13;4792849;29;20096;-78
2022/06/15 10:15:40;;;;;;;11.23;8.70;;;;;;;25.05;55.34;92998.78;4792305;29;20111;-78
2022/06/15 10:18:30;;;;;;;11.63;8.10;;;;;;;25.33;55.92;92993.78;4795773;29;20047;-78
2022/06/15 10:21:03;;;;;;;17.02;8.60;;;;;;;25.49;55.79;92998.16;4808759;29;20039;-78
2022/06/15 10:23:49;;;;;;;14.57;8.52;;;;;;;25.59;55.96;92992.13;4795775;29;20051;-78
2022/06/15 10:26:46;;;;;;;14.52;8.15;;;;;;;25.67;54.23;92990.28;4796161;29;20062;-78
2022/06/15 10:29:14;;;;;;;16.98;8.45;;;;;;;25.44;54.33;92985.84;4793368;30;20086;-78
2022/06/15 10:31:42;;;;;;;20.55;8.48;;;;;;;25.33;54.90;92982.28;4808063;29;20027;-78
2022/06/15 10:34:29;;;;;;;11.23;8.20;;;;;;;25.38;54.42;92983.88;4808155;29;20043;-78
2022/06/15 10:36:58;;;;;;;13.55;8.15;;;;;;;25.37;55.32;92985.00;4795438;29;20047;-78
2022/06/15 10:39:40;;;;;;;13.50;7.90;;;;;;;25.63;54.95;92984.13;4809621;29;20047;-78
2022/06/15 10:42:18;;;;;;;19.90;8.70;;;;;;;25.52;54.31;92976.75;4794294;30;20541;-78
2022/06/15 10:44:59;;;;;;;11.73;7.68;;;;;;;25.50;55.20;92981.69;4807422;29;20435;-78
2022/06/15 10:48:03;;;;;;;16.50;8.15;;;;;;;25.67;56.49;92990.28;4792993;29;20044;-78
2022/06/15 10:50:42;;;;;;;14.68;8.57;;;;;;;25.47;53.55;92987.78;4789831;29;20070;-78
2022/06/15 10:53:42;;;;;;;14.50;8.82;;;;;;;25.66;54.41;92989.50;4794042;29;20449;-78
2022/06/15 11:02:18;;;;;;;16.35;9.07;;;;;;;26.07;53.68;92996.78;4795931;29;20495;-78
2022/06/15 11:04:44;;;;;;;14.48;8.75;;;;;;;26.24;53.59;92990.78;4794675;29;20041;-78
2022/06/15 11:07:14;;;;;;;13.18;9.52;;;;;;;26.08;53.24;92993.75;4809595;29;20071;-78
2022/06/15 11:09:59;;;;;;;13.20;8.85;;;;;;;26.24;53.17;92990.78;4810150;29;20051;-77
2022/06/15 11:12:43;;;;;;;14.90;8.70;;;;;;;26.16;52.42;92989.97;4795148;29;20050;-78
2022/06/15 11:15:15;;;;;;;20.35;9.15;;;;;;;26.30;55.61;92994.69;4795645;29;20055;-78
2022/06/15 11:18:06;;;;;;;15.35;9.00;;;;;;;26.26;53.17;92983.16;4794877;29;20043;-78
2022/06/15 11:20:50;;;;;;;14.65;9.43;;;;;;;26.47;52.67;92992.47;4795442;29;20098;-78
2022/06/15 11:23:55;;;;;;;16.80;9.82;;;;;;;26.49;51.32;92987.50;4795666;29;20065;-78
2022/06/15 11:26:52;;;;;;;17.05;9.15;;;;;;;26.08;52.37;92983.00;4790556;30;20122;-78
2022/06/15 11:29:48;;;;;;;15.18;8.88;;;;;;;25.99;53.63;92987.16;4792819;30;20046;-78
2022/06/15 11:32:35;;;;;;;20.73;9.98;;;;;;;25.91;52.43;92984.38;4792327;29;20046;-78
2022/06/15 11:35:12;;;;;;;18.40;9.23;;;;;;;25.95;53.73;92987.88;4793060;29;20467;-78
2022/06/15 11:37:49;;;;;;;17.33;9.30;;;;;;;25.83;52.85;92985.47;4791953;29;20050;-78
2022/06/15 11:40:49;;;;;;;21.45;10.45;;;;;;;25.76;51.86;92980.81;4794047;29;20570;-78
2022/06/15 11:43:29;;;;;;;14.30;9.07;;;;;;;25.74;53.76;92979.63;4793282;29;20047;-78
2022/06/15 11:46:03;;;;;;;16.48;8.95;;;;;;;25.73;53.08;92975.41;4795049;29;20042;-78
2022/06/15 11:49:02;;;;;;;13.65;9.48;;;;;;;25.44;53.84;92980.47;4792677;29;20134;-78
2022/06/15 11:52:00;;;;;;;16.25;9.30;;;;;;;25.43;54.72;92984.31;4791962;29;20055;-79
2022/06/15 11:54:50;;;;;;;17.88;10.18;;;;;;;25.88;55.68;92995.88;4807953;29;20046;-77
2022/06/15 11:57:22;;;;;;;14.63;9.27;;;;;;;26.14;54.30;92986.91;4812417;29;20068;-78
2022/06/15 12:00:20;;;;;;;23.25;10.73;;;;;;;26.11;53.09;92989.53;4812085;29;20047;-79
2022/06/15 12:02:52;;;;;;;15.93;9.38;;;;;;;26.45;53.46;92974.06;4830844;29;20564;-79